Lihue, HI

1:46 AM HST on February 09, 2016 (GMT -1000)
Uluko | | Change Station
CLOSE
Current Station
Personal Weather Station
Location: Lihue, HI
Elevation: 187 ft
Nearby Weather Stations
Active Advisory: High Surf Advisory Active Notice: Record Report

Elev 187 ft 21.96 °N, 159.37 °W | Updated 14 seconds ago

Clear
Clear
57.1 °F
Feels Like 57.1 °F
N
2.0
Wind Variable Wind from WNW
Gusts 4.0 mph

Today
High -- | Low -- °F
--% Chance of Precip.
Yesterday
High -- | Low -- °F
Precip. -- in
Pressure 30.06 in
Visibility 10.0 miles
Clouds Clear
Dew Point 53 °F
Humidity 87%
Rainfall 0.00 in
Snow Depth Not available.
7:12 AM 6:31 PM
New Moon, 1% visible
METAR PHLI 091053Z 28008KT 10SM CLR 16/11 A3007 RMK AO2 SLP179 T01560111
Pressure 30.06 in
Visibility 10.0 miles
Clouds Clear
Dew Point 53 °F
Humidity 87%
Rainfall 0.00 in
Snow Depth Not available.
7:12 AM 6:31 PM
New Moon, 1% visible
METAR PHLI 091053Z 28008KT 10SM CLR 16/11 A3007 RMK AO2 SLP179 T01560111

10-Day Weather Forecast

Almanac

Astronomy

Feb. 09, 2016 Rise Set
Actual Time
Civil Twilight
Nautical Twilight
Astronomical Twilight
Moon
Length of Visible Light
Length of Day
Tomorrow will be .
, % of the Moon is Illuminated

Today's Extremes

State Highs State Lows

Community

WunderPhotos

Upload Photos

1,891,565 photos uploaded!

WunderBlog® & News

Nearby

Air Quality

  Air Quality AQ Index Pollutant
Not available.

Snow Depth

Station Depth Elevation

Earthquake Activity

City Distance Mag. Time & Date
Minimum magnitude displayed is 2.5.

Coastal Water Temperatures

Place Temperature

Stations

Nearby Weather Stations

Station Location Temp. Windchill Dew Point Humidity Wind Precip. Elev Updated Type
                   

Watches & Warnings

High Surf Advisory
Issued: 3:53 PM HST Feb. 8, 2016 – National Weather Service

... High surf advisory remains in effect until 6 am HST Tuesday...

* surf... along north facing shores of Niihau and Kauai... 14 to 18
ft... and along north facing shores of Oahu Molokai and Maui... 12
to 16 feet.

* Timing... through 6 am HST Tuesday.

* Impacts... moderate... expect strong breaking waves... shore
break... and strong longshore and rip currents making swimming
difficult and dangerous.

Precautionary/preparedness actions...

Beachgoers... swimmers... and surfers should heed all advice given
by ocean safety officials and exercise caution.



Wroe